sensor_id;sensor_type;location;lat;lon;timestamp;pressure;altitude;pressure_sealevel;temperature;humidity
79752;BME280;69234;47.446;21.636;2023-04-24T00:00:05;100027.44;;;8.64;67.82
79752;BME280;69234;47.446;21.636;2023-04-24T00:00:36;100032.94;;;8.63;68.26
79752;BME280;69234;47.446;21.636;2023-04-24T00:01:08;100031.22;;;8.62;68.04
79752;BME280;69234;47.446;21.636;2023-04-24T00:01:39;100033.19;;;8.60;68.04
79752;BME280;69234;47.446;21.636;2023-04-24T00:02:10;100032.34;;;8.59;68.75
79752;BME280;69234;47.446;21.636;2023-04-24T00:02:42;100026.25;;;8.57;68.44
79752;BME280;69234;47.446;21.636;2023-04-24T00:03:17;100032.59;;;8.56;68.56
79752;BME280;69234;47.446;21.636;2023-04-24T00:03:51;100031.84;;;8.54;68.84
79752;BME280;69234;47.446;21.636;2023-04-24T00:04:22;100032.00;;;8.52;68.79
79752;BME280;69234;47.446;21.636;2023-04-24T00:04:56;100028.72;;;8.49;69.02
79752;BME280;69234;47.446;21.636;2023-04-24T00:05:27;100036.63;;;8.50;69.16
79752;BME280;69234;47.446;21.636;2023-04-24T00:05:57;100031.50;;;8.47;68.81
79752;BME280;69234;47.446;21.636;2023-04-24T00:06:30;100029.69;;;8.48;68.97
79752;BME280;69234;47.446;21.636;2023-04-24T00:07:03;100037.72;;;8.48;68.80
79752;BME280;69234;47.446;21.636;2023-04-24T00:07:34;100028.84;;;8.47;68.99
79752;BME280;69234;47.446;21.636;2023-04-24T00:08:05;100029.81;;;8.46;69.14
79752;BME280;69234;47.446;21.636;2023-04-24T00:08:36;100033.47;;;8.45;69.06
79752;BME280;69234;47.446;21.636;2023-04-24T00:09:07;100029.94;;;8.45;69.20
79752;BME280;69234;47.446;21.636;2023-04-24T00:09:38;100032.88;;;8.42;69.20
79752;BME280;69234;47.446;21.636;2023-04-24T00:10:09;100027.53;;;8.42;69.06
79752;BME280;69234;47.446;21.636;2023-04-24T00:10:41;100030.31;;;8.40;68.93
79752;BME280;69234;47.446;21.636;2023-04-24T00:11:11;100029.47;;;8.40;68.87
79752;BME280;69234;47.446;21.636;2023-04-24T00:11:42;100023.28;;;8.39;69.15
79752;BME280;69234;47.446;21.636;2023-04-24T00:12:13;100034.09;;;8.38;69.16
79752;BME280;69234;47.446;21.636;2023-04-24T00:12:44;100028.84;;;8.36;68.98
79752;BME280;69234;47.446;21.636;2023-04-24T00:13:15;100028.00;;;8.36;69.33
79752;BME280;69234;47.446;21.636;2023-04-24T00:13:45;100031.63;;;8.34;69.20
79752;BME280;69234;47.446;21.636;2023-04-24T00:14:16;100022.88;;;8.32;68.98
79752;BME280;69234;47.446;21.636;2023-04-24T00:14:47;100022.88;;;8.32;69.24
79752;BME280;69234;47.446;21.636;2023-04-24T00:15:18;100025.66;;;8.31;69.49
79752;BME280;69234;47.446;21.636;2023-04-24T00:15:49;100027.50;;;8.30;69.20
79752;BME280;69234;47.446;21.636;2023-04-24T00:16:19;100024.81;;;8.30;69.49
79752;BME280;69234;47.446;21.636;2023-04-24T00:16:50;100027.75;;;8.27;69.75
79752;BME280;69234;47.446;21.636;2023-04-24T00:17:21;100019.13;;;8.24;69.69
79752;BME280;69234;47.446;21.636;2023-04-24T00:17:52;100020.00;;;8.24;69.61
79752;BME280;69234;47.446;21.636;2023-04-24T00:18:23;100022.78;;;8.23;69.35
79752;BME280;69234;47.446;21.636;2023-04-24T00:18:54;100017.56;;;8.21;69.54
79752;BME280;69234;47.446;21.636;2023-04-24T00:19:25;100015.84;;;8.20;69.58
79752;BME280;69234;47.446;21.636;2023-04-24T00:19:56;100022.31;;;8.18;70.15
79752;BME280;69234;47.446;21.636;2023-04-24T00:20:28;100025.25;;;8.15;69.84
79752;BME280;69234;47.446;21.636;2023-04-24T00:21:03;100019.03;;;8.14;70.11
79752;BME280;69234;47.446;21.636;2023-04-24T00:21:35;100015.63;;;8.12;70.01
79752;BME280;69234;47.446;21.636;2023-04-24T00:22:05;100020.97;;;8.12;69.97
79752;BME280;69234;47.446;21.636;2023-04-24T00:22:36;100017.56;;;8.10;69.76
79752;BME280;69234;47.446;21.636;2023-04-24T00:23:07;100015.03;;;8.08;69.85
79752;BME280;69234;47.446;21.636;2023-04-24T00:23:38;100014.19;;;8.08;69.99
79752;BME280;69234;47.446;21.636;2023-04-24T00:24:09;100017.81;;;8.07;69.79
79752;BME280;69234;47.446;21.636;2023-04-24T00:24:40;100012.47;;;8.07;70.00
79752;BME280;69234;47.446;21.636;2023-04-24T00:25:11;100015.13;;;8.07;70.00
79752;BME280;69234;47.446;21.636;2023-04-24T00:25:42;100012.72;;;8.04;69.36
79752;BME280;69234;47.446;21.636;2023-04-24T00:26:12;100023.44;;;8.04;70.15
79752;BME280;69234;47.446;21.636;2023-04-24T00:26:43;100017.19;;;8.03;69.93
79752;BME280;69234;47.446;21.636;2023-04-24T00:27:14;100021.72;;;8.03;70.36
79752;BME280;69234;47.446;21.636;2023-04-24T00:27:45;100022.69;;;8.02;70.15
79752;BME280;69234;47.446;21.636;2023-04-24T00:28:16;100020.88;;;8.02;69.83
79752;BME280;69234;47.446;21.636;2023-04-24T00:28:46;100020.00;;;8.02;69.97
79752;BME280;69234;47.446;21.636;2023-04-24T00:29:17;100017.34;;;8.02;70.31
79752;BME280;69234;47.446;21.636;2023-04-24T00:29:48;100012.97;;;8.01;70.21
79752;BME280;69234;47.446;21.636;2023-04-24T00:30:19;100015.66;;;8.01;69.92
79752;BME280;69234;47.446;21.636;2023-04-24T00:30:50;100013.09;;;7.99;70.19
79752;BME280;69234;47.446;21.636;2023-04-24T00:31:20;100017.47;;;8.00;70.43
79752;BME280;69234;47.446;21.636;2023-04-24T00:31:51;100014.91;;;7.99;70.26
79752;BME280;69234;47.446;21.636;2023-04-24T00:32:22;100011.38;;;7.98;70.34
79752;BME280;69234;47.446;21.636;2023-04-24T00:32:53;100014.19;;;7.97;70.24
79752;BME280;69234;47.446;21.636;2023-04-24T00:33:23;100008.13;;;7.95;70.35
79752;BME280;69234;47.446;21.636;2023-04-24T00:33:54;100006.41;;;7.94;70.56
79752;BME280;69234;47.446;21.636;2023-04-24T00:34:25;100011.78;;;7.94;70.61
79752;BME280;69234;47.446;21.636;2023-04-24T00:34:56;100013.59;;;7.93;70.72
79752;BME280;69234;47.446;21.636;2023-04-24T00:35:26;100009.19;;;7.92;70.60
79752;BME280;69234;47.446;21.636;2023-04-24T00:35:57;100011.03;;;7.92;70.67
79752;BME280;69234;47.446;21.636;2023-04-24T00:36:28;100009.19;;;7.92;70.68
79752;BME280;69234;47.446;21.636;2023-04-24T00:36:59;100010.28;;;7.90;70.83
79752;BME280;69234;47.446;21.636;2023-04-24T00:37:30;100013.94;;;7.89;70.87
79752;BME280;69234;47.446;21.636;2023-04-24T00:38:01;100008.59;;;7.89;70.89
79752;BME280;69234;47.446;21.636;2023-04-24T00:38:32;100008.59;;;7.89;70.98
79752;BME280;69234;47.446;21.636;2023-04-24T00:39:03;100008.59;;;7.89;70.84
79752;BME280;69234;47.446;21.636;2023-04-24T00:39:33;100012.25;;;7.88;71.21
79752;BME280;69234;47.446;21.636;2023-04-24T00:40:05;100008.84;;;7.85;71.12
79752;BME280;69234;47.446;21.636;2023-04-24T00:40:36;100006.91;;;7.88;70.91
79752;BME280;69234;47.446;21.636;2023-04-24T00:41:07;99999.13;;;7.84;71.12
79752;BME280;69234;47.446;21.636;2023-04-24T00:41:38;100008.84;;;7.85;71.20
79752;BME280;69234;47.446;21.636;2023-04-24T00:42:09;100001.06;;;7.82;71.20
79752;BME280;69234;47.446;21.636;2023-04-24T00:42:40;100003.72;;;7.82;71.13
79752;BME280;69234;47.446;21.636;2023-04-24T00:43:11;100002.03;;;7.81;71.21
79752;BME280;69234;47.446;21.636;2023-04-24T00:43:42;100005.69;;;7.80;71.37
79752;BME280;69234;47.446;21.636;2023-04-24T00:44:14;100004.72;;;7.81;71.08
79752;BME280;69234;47.446;21.636;2023-04-24T00:44:44;100008.38;;;7.80;71.43
79752;BME280;69234;47.446;21.636;2023-04-24T00:45:16;100005.09;;;7.77;71.47
79752;BME280;69234;47.446;21.636;2023-04-24T00:45:47;100001.56;;;7.76;71.84
79752;BME280;69234;47.446;21.636;2023-04-24T00:46:19;100006.03;;;7.76;71.69
79752;BME280;69234;47.446;21.636;2023-04-24T00:46:50;100001.81;;;7.73;72.28
79752;BME280;69234;47.446;21.636;2023-04-24T00:47:25;100004.72;;;7.70;72.20
79752;BME280;69234;47.446;21.636;2023-04-24T00:47:56;100003.03;;;7.69;71.88
79752;BME280;69234;47.446;21.636;2023-04-24T00:48:27;100000.47;;;7.68;72.18
79752;BME280;69234;47.446;21.636;2023-04-24T00:48:59;99998.88;;;7.65;72.16
79752;BME280;69234;47.446;21.636;2023-04-24T00:49:30;99999.00;;;7.63;72.19
79752;BME280;69234;47.446;21.636;2023-04-24T00:50:05;99999.38;;;7.59;72.88
79752;BME280;69234;47.446;21.636;2023-04-24T00:50:38;99987.09;;;7.56;72.71
79752;BME280;69234;47.446;21.636;2023-04-24T00:51:09;99999.50;;;7.57;73.03
79752;BME280;69234;47.446;21.636;2023-04-24T00:51:40;99999.50;;;7.57;72.43
79752;BME280;69234;47.446;21.636;2023-04-24T00:52:15;100006.66;;;7.57;72.87
79752;BME280;69234;47.446;21.636;2023-04-24T00:52:48;100003.00;;;7.58;72.41
79752;BME280;69234;47.446;21.636;2023-04-24T00:53:19;100007.50;;;7.57;72.81
79752;BME280;69234;47.446;21.636;2023-04-24T00:53:50;100001.31;;;7.57;72.40
79752;BME280;69234;47.446;21.636;2023-04-24T00:54:21;100004.97;;;7.56;72.11
79752;BME280;69234;47.446;21.636;2023-04-24T00:54:52;100000.56;;;7.55;72.65
79752;BME280;69234;47.446;21.636;2023-04-24T00:55:22;100000.56;;;7.55;72.30
79752;BME280;69234;47.446;21.636;2023-04-24T00:55:55;100005.06;;;7.54;72.46
79752;BME280;69234;47.446;21.636;2023-04-24T00:56:27;99995.50;;;7.52;72.47
79752;BME280;69234;47.446;21.636;2023-04-24T00:56:58;100004.22;;;7.54;72.59
79752;BME280;69234;47.446;21.636;2023-04-24T00:57:30;100007.28;;;7.49;72.83
79752;BME280;69234;47.446;21.636;2023-04-24T00:58:01;100003.00;;;7.47;73.00
79752;BME280;69234;47.446;21.636;2023-04-24T00:58:32;100002.41;;;7.43;73.19
79752;BME280;69234;47.446;21.636;2023-04-24T00:59:03;99998.88;;;7.43;73.17
79752;BME280;69234;47.446;21.636;2023-04-24T00:59:34;99994.50;;;7.42;73.39
79752;BME280;69234;47.446;21.636;2023-04-24T01:00:07;99998.75;;;7.44;73.43
79752;BME280;69234;47.446;21.636;2023-04-24T01:00:41;100008.59;;;7.44;73.13
79752;BME280;69234;47.446;21.636;2023-04-24T01:01:12;99998.03;;;7.42;73.23
79752;BME280;69234;47.446;21.636;2023-04-24T01:01:43;100002.53;;;7.42;72.97
79752;BME280;69234;47.446;21.636;2023-04-24T01:02:14;100000.94;;;7.39;73.22
79752;BME280;69234;47.446;21.636;2023-04-24T01:02:46;99999.88;;;7.42;73.34
79752;BME280;69234;47.446;21.636;2023-04-24T01:03:17;99999.97;;;7.40;73.13
79752;BME280;69234;47.446;21.636;2023-04-24T01:03:51;99995.59;;;7.39;73.54
79752;BME280;69234;47.446;21.636;2023-04-24T01:04:24;100000.09;;;7.38;73.45
79752;BME280;69234;47.446;21.636;2023-04-24T01:04:55;99997.66;;;7.35;73.00
79752;BME280;69234;47.446;21.636;2023-04-24T01:05:26;100000.34;;;7.35;72.65
79752;BME280;69234;47.446;21.636;2023-04-24T01:05:57;99998.63;;;7.34;72.83
79752;BME280;69234;47.446;21.636;2023-04-24T01:06:29;99993.31;;;7.34;73.07
79752;BME280;69234;47.446;21.636;2023-04-24T01:07:01;99996.91;;;7.33;72.83
79752;BME280;69234;47.446;21.636;2023-04-24T01:07:32;99997.75;;;7.34;73.19
79752;BME280;69234;47.446;21.636;2023-04-24T01:08:05;99995.22;;;7.32;72.87
79752;BME280;69234;47.446;21.636;2023-04-24T01:08:37;99995.22;;;7.32;73.34
79752;BME280;69234;47.446;21.636;2023-04-24T01:09:10;99996.06;;;7.33;73.62
79752;BME280;69234;47.446;21.636;2023-04-24T01:09:42;99992.56;;;7.32;72.91
79752;BME280;69234;47.446;21.636;2023-04-24T01:10:15;99990.84;;;7.31;72.90
79752;BME280;69234;47.446;21.636;2023-04-24T01:10:52;99987.22;;;7.32;73.01
79752;BME280;69234;47.446;21.636;2023-04-24T01:11:23;99990.84;;;7.31;73.36
79752;BME280;69234;47.446;21.636;2023-04-24T01:11:54;99993.63;;;7.30;73.38
79752;BME280;69234;47.446;21.636;2023-04-24T01:12:25;99991.72;;;7.32;74.09
79752;BME280;69234;47.446;21.636;2023-04-24T01:12:56;99991.56;;;7.33;73.32
79752;BME280;69234;47.446;21.636;2023-04-24T01:13:28;99991.56;;;7.33;73.24
79752;BME280;69234;47.446;21.636;2023-04-24T01:13:59;99990.63;;;7.34;73.38
79752;BME280;69234;47.446;21.636;2023-04-24T01:14:31;99990.63;;;7.34;73.12
79752;BME280;69234;47.446;21.636;2023-04-24T01:15:01;99987.94;;;7.34;73.34
79752;BME280;69234;47.446;21.636;2023-04-24T01:15:34;99989.03;;;7.32;73.65
79752;BME280;69234;47.446;21.636;2023-04-24T01:16:05;99990.72;;;7.33;73.81
79752;BME280;69234;47.446;21.636;2023-04-24T01:16:38;99993.53;;;7.31;73.82
79752;BME280;69234;47.446;21.636;2023-04-24T01:17:09;99993.53;;;7.31;73.59
79752;BME280;69234;47.446;21.636;2023-04-24T01:17:41;99993.53;;;7.31;73.31
79752;BME280;69234;47.446;21.636;2023-04-24T01:18:13;99992.78;;;7.29;73.30
79752;BME280;69234;47.446;21.636;2023-04-24T01:18:44;99997.16;;;7.30;73.19
79752;BME280;69234;47.446;21.636;2023-04-24T01:19:18;99998.03;;;7.31;73.65
79752;BME280;69234;47.446;21.636;2023-04-24T01:19:49;99997.16;;;7.30;73.58
79752;BME280;69234;47.446;21.636;2023-04-24T01:20:20;99992.78;;;7.29;73.55
79752;BME280;69234;47.446;21.636;2023-04-24T01:20:57;99997.16;;;7.30;73.30
79752;BME280;69234;47.446;21.636;2023-04-24T01:21:30;99993.63;;;7.30;73.60
79752;BME280;69234;47.446;21.636;2023-04-24T01:22:15;99993.53;;;7.31;73.76
79752;BME280;69234;47.446;21.636;2023-04-24T01:22:47;99997.16;;;7.30;73.58
79752;BME280;69234;47.446;21.636;2023-04-24T01:23:19;99996.31;;;7.30;73.50
79752;BME280;69234;47.446;21.636;2023-04-24T01:23:50;99991.09;;;7.28;73.50
79752;BME280;69234;47.446;21.636;2023-04-24T01:24:22;99993.75;;;7.28;72.94
79752;BME280;69234;47.446;21.636;2023-04-24T01:24:53;99987.56;;;7.28;73.52
79752;BME280;69234;47.446;21.636;2023-04-24T01:25:25;99992.03;;;7.27;73.43
79752;BME280;69234;47.446;21.636;2023-04-24T01:25:57;99994.00;;;7.25;73.49
79752;BME280;69234;47.446;21.636;2023-04-24T01:26:30;99995.94;;;7.23;72.98
79752;BME280;69234;47.446;21.636;2023-04-24T01:27:01;99985.38;;;7.22;73.57
79752;BME280;69234;47.446;21.636;2023-04-24T01:27:31;99997.88;;;7.21;73.33
79752;BME280;69234;47.446;21.636;2023-04-24T01:28:03;99987.44;;;7.18;73.55
79752;BME280;69234;47.446;21.636;2023-04-24T01:28:36;99991.81;;;7.19;73.54
79752;BME280;69234;47.446;21.636;2023-04-24T01:29:09;99992.78;;;7.18;73.58
79752;BME280;69234;47.446;21.636;2023-04-24T01:29:41;99991.94;;;7.18;73.63
79752;BME280;69234;47.446;21.636;2023-04-24T01:30:14;99995.53;;;7.17;73.59
79752;BME280;69234;47.446;21.636;2023-04-24T01:30:45;99993.00;;;7.15;73.70
79752;BME280;69234;47.446;21.636;2023-04-24T01:31:16;99991.19;;;7.15;73.10
79752;BME280;69234;47.446;21.636;2023-04-24T01:31:47;99989.59;;;7.13;73.44
79752;BME280;69234;47.446;21.636;2023-04-24T01:32:18;99991.56;;;7.11;73.59
79752;BME280;69234;47.446;21.636;2023-04-24T01:32:50;99987.16;;;7.10;73.96
79752;BME280;69234;47.446;21.636;2023-04-24T01:33:22;99997.97;;;7.08;73.86
79752;BME280;69234;47.446;21.636;2023-04-24T01:33:54;99986.44;;;7.08;73.91
79752;BME280;69234;47.446;21.636;2023-04-24T01:34:26;99993.72;;;7.06;73.94
79752;BME280;69234;47.446;21.636;2023-04-24T01:34:58;99987.53;;;7.05;74.06
79752;BME280;69234;47.446;21.636;2023-04-24T01:35:29;99997.34;;;7.05;73.98
79752;BME280;69234;47.446;21.636;2023-04-24T01:36:00;99990.44;;;7.02;73.99
79752;BME280;69234;47.446;21.636;2023-04-24T01:36:32;99988.59;;;7.03;74.28
79752;BME280;69234;47.446;21.636;2023-04-24T01:37:03;99983.63;;;6.98;74.36
79752;BME280;69234;47.446;21.636;2023-04-24T01:37:35;99985.22;;;7.01;74.03
79752;BME280;69234;47.446;21.636;2023-04-24T01:38:07;99987.97;;;6.99;73.92
79752;BME280;69234;47.446;21.636;2023-04-24T01:38:40;99981.09;;;6.97;74.31
79752;BME280;69234;47.446;21.636;2023-04-24T01:39:11;99983.75;;;6.97;74.10
79752;BME280;69234;47.446;21.636;2023-04-24T01:39:43;99985.69;;;6.95;74.34
79752;BME280;69234;47.446;21.636;2023-04-24T01:40:14;99982.25;;;6.93;74.29
79752;BME280;69234;47.446;21.636;2023-04-24T01:40:45;99984.94;;;6.93;74.27
79752;BME280;69234;47.446;21.636;2023-04-24T01:41:16;99981.41;;;6.92;74.45
79752;BME280;69234;47.446;21.636;2023-04-24T01:41:49;99983.38;;;6.90;74.23
79752;BME280;69234;47.446;21.636;2023-04-24T01:42:23;99978.97;;;6.89;74.41
79752;BME280;69234;47.446;21.636;2023-04-24T01:42:54;99981.66;;;6.89;74.36
79752;BME280;69234;47.446;21.636;2023-04-24T01:43:25;99984.56;;;6.86;74.30
79752;BME280;69234;47.446;21.636;2023-04-24T01:43:57;99990.00;;;6.84;74.33
79752;BME280;69234;47.446;21.636;2023-04-24T01:44:28;99981.28;;;6.82;74.52
79752;BME280;69234;47.446;21.636;2023-04-24T01:44:59;99982.13;;;6.83;74.36
79752;BME280;69234;47.446;21.636;2023-04-24T01:45:31;99991.97;;;6.82;74.32
79752;BME280;69234;47.446;21.636;2023-04-24T01:46:01;99980.66;;;6.79;74.48
79752;BME280;69234;47.446;21.636;2023-04-24T01:46:33;99985.97;;;6.79;74.41
79752;BME280;69234;47.446;21.636;2023-04-24T01:47:05;99982.59;;;6.77;74.32
79752;BME280;69234;47.446;21.636;2023-04-24T01:47:36;99983.44;;;6.77;74.52
79752;BME280;69234;47.446;21.636;2023-04-24T01:48:08;99980.91;;;6.76;74.58
79752;BME280;69234;47.446;21.636;2023-04-24T01:48:38;99974.59;;;6.77;74.70
79752;BME280;69234;47.446;21.636;2023-04-24T01:49:10;99984.41;;;6.76;74.57
79752;BME280;69234;47.446;21.636;2023-04-24T01:49:42;99985.38;;;6.75;74.45
79752;BME280;69234;47.446;21.636;2023-04-24T01:50:13;99979.31;;;6.73;74.54
79752;BME280;69234;47.446;21.636;2023-04-24T01:50:44;99980.38;;;6.71;74.88
79752;BME280;69234;47.446;21.636;2023-04-24T01:51:16;99978.47;;;6.73;74.80
79752;BME280;69234;47.446;21.636;2023-04-24T01:51:47;99983.06;;;6.71;74.67
79752;BME280;69234;47.446;21.636;2023-04-24T01:52:18;99978.78;;;6.68;74.68
79752;BME280;69234;47.446;21.636;2023-04-24T01:52:49;99971.75;;;6.67;75.22
79752;BME280;69234;47.446;21.636;2023-04-24T01:53:20;99974.44;;;6.67;75.16
79752;BME280;69234;47.446;21.636;2023-04-24T01:53:51;99973.59;;;6.66;75.07
79752;BME280;69234;47.446;21.636;2023-04-24T01:54:21;99978.16;;;6.64;75.18
79752;BME280;69234;47.446;21.636;2023-04-24T01:55:11;99980.00;;;6.64;74.85
79752;BME280;69234;47.446;21.636;2023-04-24T01:55:42;99972.97;;;6.63;74.99
79752;BME280;69234;47.446;21.636;2023-04-24T01:56:14;99981.94;;;6.62;75.14
79752;BME280;69234;47.446;21.636;2023-04-24T01:56:45;99979.50;;;6.59;75.90
79752;BME280;69234;47.446;21.636;2023-04-24T01:57:16;99974.16;;;6.59;75.45
79752;BME280;69234;47.446;21.636;2023-04-24T01:57:47;99976.94;;;6.57;75.47
79752;BME280;69234;47.446;21.636;2023-04-24T01:58:19;99976.94;;;6.57;75.39
79752;BME280;69234;47.446;21.636;2023-04-24T01:58:51;99970.75;;;6.57;75.23
79752;BME280;69234;47.446;21.636;2023-04-24T01:59:23;99976.09;;;6.57;75.71
79752;BME280;69234;47.446;21.636;2023-04-24T01:59:56;99977.78;;;6.58;75.53
79752;BME280;69234;47.446;21.636;2023-04-24T02:00:27;99974.41;;;6.56;75.21
79752;BME280;69234;47.446;21.636;2023-04-24T02:00:57;99967.38;;;6.55;75.43
79752;BME280;69234;47.446;21.636;2023-04-24T02:01:34;99967.38;;;6.55;75.45
79752;BME280;69234;47.446;21.636;2023-04-24T02:02:08;99975.59;;;6.52;75.58
79752;BME280;69234;47.446;21.636;2023-04-24T02:02:40;99972.09;;;6.51;75.59
79752;BME280;69234;47.446;21.636;2023-04-24T02:03:11;99968.75;;;6.48;75.90
79752;BME280;69234;47.446;21.636;2023-04-24T02:03:42;99968.66;;;6.49;75.85
79752;BME280;69234;47.446;21.636;2023-04-24T02:04:13;99971.19;;;6.51;75.71
79752;BME280;69234;47.446;21.636;2023-04-24T02:04:45;99972.31;;;6.48;75.73
79752;BME280;69234;47.446;21.636;2023-04-24T02:05:16;99971.44;;;6.48;75.72
79752;BME280;69234;47.446;21.636;2023-04-24T02:05:47;99978.50;;;6.49;75.81
79752;BME280;69234;47.446;21.636;2023-04-24T02:06:17;99971.44;;;6.48;75.81
79752;BME280;69234;47.446;21.636;2023-04-24T02:06:48;99975.06;;;6.47;75.91
79752;BME280;69234;47.446;21.636;2023-04-24T02:07:19;99965.47;;;6.44;75.99
79752;BME280;69234;47.446;21.636;2023-04-24T02:07:50;99966.22;;;6.46;76.23
79752;BME280;69234;47.446;21.636;2023-04-24T02:08:21;99968.03;;;6.46;75.81
79752;BME280;69234;47.446;21.636;2023-04-24T02:08:53;99974.34;;;6.45;76.18
79752;BME280;69234;47.446;21.636;2023-04-24T02:09:24;99974.34;;;6.45;76.14
79752;BME280;69234;47.446;21.636;2023-04-24T02:09:55;99971.69;;;6.45;76.25
79752;BME280;69234;47.446;21.636;2023-04-24T02:10:26;99971.91;;;6.41;76.20
79752;BME280;69234;47.446;21.636;2023-04-24T02:10:57;99964.63;;;6.43;76.23
79752;BME280;69234;47.446;21.636;2023-04-24T02:11:29;99963.91;;;6.41;76.00
79752;BME280;69234;47.446;21.636;2023-04-24T02:11:59;99970.94;;;6.42;75.81
79752;BME280;69234;47.446;21.636;2023-04-24T02:12:31;99968.25;;;6.42;76.39
79752;BME280;69234;47.446;21.636;2023-04-24T02:13:02;99956.75;;;6.42;76.02
79752;BME280;69234;47.446;21.636;2023-04-24T02:13:32;99963.91;;;6.41;76.25
79752;BME280;69234;47.446;21.636;2023-04-24T02:14:04;99969.25;;;6.41;76.28
79752;BME280;69234;47.446;21.636;2023-04-24T02:14:36;99965.19;;;6.36;76.54
79752;BME280;69234;47.446;21.636;2023-04-24T02:15:08;99963.16;;;6.39;76.48
79752;BME280;69234;47.446;21.636;2023-04-24T02:15:41;99960.41;;;6.41;76.38
79752;BME280;69234;47.446;21.636;2023-04-24T02:16:12;99970.19;;;6.40;76.51
79752;BME280;69234;47.446;21.636;2023-04-24T02:16:43;99971.06;;;6.41;76.23
79752;BME280;69234;47.446;21.636;2023-04-24T02:17:14;99960.41;;;6.41;76.45
79752;BME280;69234;47.446;21.636;2023-04-24T02:17:46;99960.50;;;6.39;76.21
79752;BME280;69234;47.446;21.636;2023-04-24T02:18:17;99962.31;;;6.39;76.28
79752;BME280;69234;47.446;21.636;2023-04-24T02:18:47;99961.34;;;6.40;76.47
79752;BME280;69234;47.446;21.636;2023-04-24T02:19:18;99961.47;;;6.38;76.12
79752;BME280;69234;47.446;21.636;2023-04-24T02:19:49;99958.91;;;6.37;76.41
79752;BME280;69234;47.446;21.636;2023-04-24T02:20:21;99958.78;;;6.38;76.17
79752;BME280;69234;47.446;21.636;2023-04-24T02:20:52;99966.81;;;6.38;76.31
79752;BME280;69234;47.446;21.636;2023-04-24T02:21:22;99966.06;;;6.36;76.48
79752;BME280;69234;47.446;21.636;2023-04-24T02:21:53;99967.03;;;6.35;76.75
79752;BME280;69234;47.446;21.636;2023-04-24T02:22:24;99959.88;;;6.36;76.51
79752;BME280;69234;47.446;21.636;2023-04-24T02:22:54;99959.03;;;6.35;76.43
79752;BME280;69234;47.446;21.636;2023-04-24T02:23:25;99970.44;;;6.37;76.31
79752;BME280;69234;47.446;21.636;2023-04-24T02:23:57;99965.09;;;6.37;76.64
79752;BME280;69234;47.446;21.636;2023-04-24T02:24:28;99964.22;;;6.37;76.28
79752;BME280;69234;47.446;21.636;2023-04-24T02:25:00;99960.00;;;6.34;76.44
79752;BME280;69234;47.446;21.636;2023-04-24T02:25:31;99962.53;;;6.36;76.22
79752;BME280;69234;47.446;21.636;2023-04-24T02:26:02;99958.28;;;6.33;76.20
79752;BME280;69234;47.446;21.636;2023-04-24T02:26:32;99956.44;;;6.34;76.39
79752;BME280;69234;47.446;21.636;2023-04-24T02:27:03;99961.78;;;6.34;76.28
79752;BME280;69234;47.446;21.636;2023-04-24T02:27:34;99956.56;;;6.32;76.35
79752;BME280;69234;47.446;21.636;2023-04-24T02:28:05;99957.44;;;6.33;76.48
79752;BME280;69234;47.446;21.636;2023-04-24T02:28:37;99957.44;;;6.33;76.32
79752;BME280;69234;47.446;21.636;2023-04-24T02:29:08;99950.50;;;6.30;76.20
79752;BME280;69234;47.446;21.636;2023-04-24T02:29:38;99954.75;;;6.33;76.37
79752;BME280;69234;47.446;21.636;2023-04-24T02:30:10;99954.66;;;6.34;76.11
79752;BME280;69234;47.446;21.636;2023-04-24T02:30:41;99957.44;;;6.33;76.59
79752;BME280;69234;47.446;21.636;2023-04-24T02:31:12;99954.75;;;6.33;76.26
79752;BME280;69234;47.446;21.636;2023-04-24T02:31:42;99954.88;;;6.31;76.32
79752;BME280;69234;47.446;21.636;2023-04-24T02:32:13;99946.97;;;6.30;76.15
79752;BME280;69234;47.446;21.636;2023-04-24T02:32:47;99956.81;;;6.29;76.16
79752;BME280;69234;47.446;21.636;2023-04-24T02:33:17;99955.13;;;6.28;76.25
79752;BME280;69234;47.446;21.636;2023-04-24T02:33:48;99955.97;;;6.29;76.18
79752;BME280;69234;47.446;21.636;2023-04-24T02:34:19;99948.94;;;6.28;76.02
79752;BME280;69234;47.446;21.636;2023-04-24T02:34:50;99951.59;;;6.28;76.08
79752;BME280;69234;47.446;21.636;2023-04-24T02:35:21;99957.78;;;6.28;76.08
79752;BME280;69234;47.446;21.636;2023-04-24T02:35:52;99950.84;;;6.26;76.13
79752;BME280;69234;47.446;21.636;2023-04-24T02:36:22;99948.19;;;6.26;76.00
79752;BME280;69234;47.446;21.636;2023-04-24T02:36:53;99943.81;;;6.25;76.25
79752;BME280;69234;47.446;21.636;2023-04-24T02:37:24;99955.47;;;6.24;76.20
79752;BME280;69234;47.446;21.636;2023-04-24T02:37:55;99952.78;;;6.24;75.81
79752;BME280;69234;47.446;21.636;2023-04-24T02:38:26;99949.38;;;6.22;75.98
79752;BME280;69234;47.446;21.636;2023-04-24T02:38:57;99952.03;;;6.22;76.18
79752;BME280;69234;47.446;21.636;2023-04-24T02:39:27;99946.09;;;6.18;76.65
79752;BME280;69234;47.446;21.636;2023-04-24T02:39:58;99947.69;;;6.21;76.04
79752;BME280;69234;47.446;21.636;2023-04-24T02:40:29;99943.91;;;6.23;75.99
79752;BME280;69234;47.446;21.636;2023-04-24T02:41:00;99946.84;;;6.20;76.09
79752;BME280;69234;47.446;21.636;2023-04-24T02:41:32;99946.84;;;6.20;76.08
79752;BME280;69234;47.446;21.636;2023-04-24T02:42:03;99949.50;;;6.20;75.92
79752;BME280;69234;47.446;21.636;2023-04-24T02:42:34;99945.97;;;6.19;76.20
79752;BME280;69234;47.446;21.636;2023-04-24T02:43:05;99938.84;;;6.20;76.03
79752;BME280;69234;47.446;21.636;2023-04-24T02:43:36;99943.19;;;6.21;76.20
79752;BME280;69234;47.446;21.636;2023-04-24T02:44:07;99943.44;;;6.18;76.20
79752;BME280;69234;47.446;21.636;2023-04-24T02:44:37;99942.44;;;6.19;76.39
79752;BME280;69234;47.446;21.636;2023-04-24T02:45:09;99938.94;;;6.18;76.54
79752;BME280;69234;47.446;21.636;2023-04-24T02:45:40;99948.53;;;6.21;76.17
79752;BME280;69234;47.446;21.636;2023-04-24T02:46:10;99941.50;;;6.20;76.28